sensor_id;sensor_type;location;lat;lon;timestamp;temperature;humidity
35746;DHT22;21870;42.812;74.628;2024-01-07T00:02:03;9.80;99.90
35746;DHT22;21870;42.812;74.628;2024-01-07T00:04:29;9.80;99.90
35746;DHT22;21870;42.812;74.628;2024-01-07T00:06:56;9.70;99.90
35746;DHT22;21870;42.812;74.628;2024-01-07T00:09:22;9.60;99.90
35746;DHT22;21870;42.812;74.628;2024-01-07T00:11:48;9.60;99.90
35746;DHT22;21870;42.812;74.628;2024-01-07T00:14:15;9.60;99.90
35746;DHT22;21870;42.812;74.628;2024-01-07T00:16:42;9.60;99.90
35746;DHT22;21870;42.812;74.628;2024-01-07T00:19:11;9.50;99.90
35746;DHT22;21870;42.812;74.628;2024-01-07T00:21:37;9.50;99.90
35746;DHT22;21870;42.812;74.628;2024-01-07T00:24:04;9.60;99.90
35746;DHT22;21870;42.812;74.628;2024-01-07T00:26:30;9.60;99.90
35746;DHT22;21870;42.812;74.628;2024-01-07T00:28:55;9.60;99.90
35746;DHT22;21870;42.812;74.628;2024-01-07T00:31:21;9.60;99.90
35746;DHT22;21870;42.812;74.628;2024-01-07T00:33:48;9.50;99.90
35746;DHT22;21870;42.812;74.628;2024-01-07T00:36:14;9.60;99.90
35746;DHT22;21870;42.812;74.628;2024-01-07T00:38:40;9.60;99.90
35746;DHT22;21870;42.812;74.628;2024-01-07T00:41:09;9.60;99.90
35746;DHT22;21870;42.812;74.628;2024-01-07T00:43:35;9.60;99.90
35746;DHT22;21870;42.812;74.628;2024-01-07T00:46:01;9.50;99.90
35746;DHT22;21870;42.812;74.628;2024-01-07T00:48:27;9.50;99.90
35746;DHT22;21870;42.812;74.628;2024-01-07T00:50:53;9.50;99.90
35746;DHT22;21870;42.812;74.628;2024-01-07T00:53:19;9.40;99.90
35746;DHT22;21870;42.812;74.628;2024-01-07T00:55:45;9.40;99.90
35746;DHT22;21870;42.812;74.628;2024-01-07T00:58:11;9.40;99.90
35746;DHT22;21870;42.812;74.628;2024-01-07T01:00:37;9.40;99.90
35746;DHT22;21870;42.812;74.628;2024-01-07T01:03:03;9.40;99.90
35746;DHT22;21870;42.812;74.628;2024-01-07T01:05:30;9.40;99.90
35746;DHT22;21870;42.812;74.628;2024-01-07T01:07:55;9.30;99.90
35746;DHT22;21870;42.812;74.628;2024-01-07T01:10:22;9.30;99.90
35746;DHT22;21870;42.812;74.628;2024-01-07T01:12:48;9.40;99.90
35746;DHT22;21870;42.812;74.628;2024-01-07T01:15:14;9.40;99.90
35746;DHT22;21870;42.812;74.628;2024-01-07T01:17:42;9.30;99.90
35746;DHT22;21870;42.812;74.628;2024-01-07T01:20:08;9.20;99.90
35746;DHT22;21870;42.812;74.628;2024-01-07T01:22:34;9.20;99.90
35746;DHT22;21870;42.812;74.628;2024-01-07T01:25:00;9.20;99.90
35746;DHT22;21870;42.812;74.628;2024-01-07T01:27:28;9.20;99.90
35746;DHT22;21870;42.812;74.628;2024-01-07T01:29:54;9.20;99.90
35746;DHT22;21870;42.812;74.628;2024-01-07T01:32:20;9.30;99.90
35746;DHT22;21870;42.812;74.628;2024-01-07T01:34:46;9.40;99.90
35746;DHT22;21870;42.812;74.628;2024-01-07T01:37:12;9.40;99.90
35746;DHT22;21870;42.812;74.628;2024-01-07T01:39:41;9.40;99.90
35746;DHT22;21870;42.812;74.628;2024-01-07T01:42:07;9.40;99.90
35746;DHT22;21870;42.812;74.628;2024-01-07T01:44:33;9.40;99.90
35746;DHT22;21870;42.812;74.628;2024-01-07T01:47:00;9.30;99.90
35746;DHT22;21870;42.812;74.628;2024-01-07T01:49:27;9.30;99.90
35746;DHT22;21870;42.812;74.628;2024-01-07T01:51:56;9.30;99.90
35746;DHT22;21870;42.812;74.628;2024-01-07T01:54:23;9.40;99.90
35746;DHT22;21870;42.812;74.628;2024-01-07T01:56:49;9.40;99.90
35746;DHT22;21870;42.812;74.628;2024-01-07T01:59:15;9.40;99.90
35746;DHT22;21870;42.812;74.628;2024-01-07T02:01:42;9.40;99.90
35746;DHT22;21870;42.812;74.628;2024-01-07T02:04:08;9.30;99.90
35746;DHT22;21870;42.812;74.628;2024-01-07T02:06:35;9.30;99.90
35746;DHT22;21870;42.812;74.628;2024-01-07T02:09:02;9.30;99.90
35746;DHT22;21870;42.812;74.628;2024-01-07T02:11:29;9.30;99.90
35746;DHT22;21870;42.812;74.628;2024-01-07T02:13:55;9.20;99.90
35746;DHT22;21870;42.812;74.628;2024-01-07T02:16:21;9.20;99.90
35746;DHT22;21870;42.812;74.628;2024-01-07T02:18:47;9.30;99.90
35746;DHT22;21870;42.812;74.628;2024-01-07T02:21:13;9.30;99.90
35746;DHT22;21870;42.812;74.628;2024-01-07T02:23:40;9.30;99.90
35746;DHT22;21870;42.812;74.628;2024-01-07T02:26:06;9.30;99.90
35746;DHT22;21870;42.812;74.628;2024-01-07T02:28:33;9.40;99.90
35746;DHT22;21870;42.812;74.628;2024-01-07T02:30:59;9.40;99.90
35746;DHT22;21870;42.812;74.628;2024-01-07T02:33:25;9.20;99.90
35746;DHT22;21870;42.812;74.628;2024-01-07T02:35:51;9.20;99.90
35746;DHT22;21870;42.812;74.628;2024-01-07T02:38:17;9.10;99.90
35746;DHT22;21870;42.812;74.628;2024-01-07T02:40:43;9.00;99.90
35746;DHT22;21870;42.812;74.628;2024-01-07T02:43:09;8.90;99.90
35746;DHT22;21870;42.812;74.628;2024-01-07T02:45:35;8.80;99.90
35746;DHT22;21870;42.812;74.628;2024-01-07T02:48:01;8.80;99.90
35746;DHT22;21870;42.812;74.628;2024-01-07T02:50:28;8.70;99.90
35746;DHT22;21870;42.812;74.628;2024-01-07T02:52:54;8.70;99.90
35746;DHT22;21870;42.812;74.628;2024-01-07T02:55:20;8.80;99.90
35746;DHT22;21870;42.812;74.628;2024-01-07T02:57:46;8.80;99.90
35746;DHT22;21870;42.812;74.628;2024-01-07T03:00:13;8.80;99.90
35746;DHT22;21870;42.812;74.628;2024-01-07T03:02:39;8.80;99.90
35746;DHT22;21870;42.812;74.628;2024-01-07T03:05:05;8.80;99.90
35746;DHT22;21870;42.812;74.628;2024-01-07T03:07:31;8.80;99.90
35746;DHT22;21870;42.812;74.628;2024-01-07T03:09:57;8.80;99.90
35746;DHT22;21870;42.812;74.628;2024-01-07T03:12:26;8.80;99.90
35746;DHT22;21870;42.812;74.628;2024-01-07T03:14:52;8.80;99.90
35746;DHT22;21870;42.812;74.628;2024-01-07T03:17:21;8.80;99.90
35746;DHT22;21870;42.812;74.628;2024-01-07T03:19:48;8.90;99.90
35746;DHT22;21870;42.812;74.628;2024-01-07T03:22:14;9.00;99.90
35746;DHT22;21870;42.812;74.628;2024-01-07T03:24:41;9.10;99.90
35746;DHT22;21870;42.812;74.628;2024-01-07T03:27:08;9.20;99.90
35746;DHT22;21870;42.812;74.628;2024-01-07T03:29:34;9.30;99.90
35746;DHT22;21870;42.812;74.628;2024-01-07T03:32:01;9.40;99.90
35746;DHT22;21870;42.812;74.628;2024-01-07T03:34:27;9.60;99.90
35746;DHT22;21870;42.812;74.628;2024-01-07T03:36:53;9.70;99.90
35746;DHT22;21870;42.812;74.628;2024-01-07T03:39:19;9.80;99.90
35746;DHT22;21870;42.812;74.628;2024-01-07T03:41:45;10.00;99.90
35746;DHT22;21870;42.812;74.628;2024-01-07T03:44:11;10.10;99.90
35746;DHT22;21870;42.812;74.628;2024-01-07T03:46:37;10.20;99.90
35746;DHT22;21870;42.812;74.628;2024-01-07T03:49:03;10.20;99.90
35746;DHT22;21870;42.812;74.628;2024-01-07T03:51:29;10.30;99.90
35746;DHT22;21870;42.812;74.628;2024-01-07T03:53:55;10.50;99.90
35746;DHT22;21870;42.812;74.628;2024-01-07T03:56:21;10.60;99.90
35746;DHT22;21870;42.812;74.628;2024-01-07T03:58:47;10.80;99.90
35746;DHT22;21870;42.812;74.628;2024-01-07T04:01:17;10.90;99.90
35746;DHT22;21870;42.812;74.628;2024-01-07T04:03:43;10.90;99.90
35746;DHT22;21870;42.812;74.628;2024-01-07T04:06:09;11.00;99.90
35746;DHT22;21870;42.812;74.628;2024-01-07T04:08:35;11.10;99.90
35746;DHT22;21870;42.812;74.628;2024-01-07T04:11:04;11.20;99.90
35746;DHT22;21870;42.812;74.628;2024-01-07T04:13:30;11.30;99.90
35746;DHT22;21870;42.812;74.628;2024-01-07T04:15:56;11.40;99.90
35746;DHT22;21870;42.812;74.628;2024-01-07T04:18:22;11.30;99.90
35746;DHT22;21870;42.812;74.628;2024-01-07T04:20:48;11.40;99.90
35746;DHT22;21870;42.812;74.628;2024-01-07T04:23:14;11.40;99.90
35746;DHT22;21870;42.812;74.628;2024-01-07T04:25:40;11.60;99.90
35746;DHT22;21870;42.812;74.628;2024-01-07T04:28:08;11.70;99.90
35746;DHT22;21870;42.812;74.628;2024-01-07T04:30:35;11.90;99.90
35746;DHT22;21870;42.812;74.628;2024-01-07T04:33:01;11.90;99.90
35746;DHT22;21870;42.812;74.628;2024-01-07T04:35:27;12.10;99.90
35746;DHT22;21870;42.812;74.628;2024-01-07T04:37:53;12.20;99.90
35746;DHT22;21870;42.812;74.628;2024-01-07T04:40:19;12.30;99.90
35746;DHT22;21870;42.812;74.628;2024-01-07T04:42:45;12.40;99.90
35746;DHT22;21870;42.812;74.628;2024-01-07T04:45:11;12.50;99.90
35746;DHT22;21870;42.812;74.628;2024-01-07T04:47:37;12.60;99.90
35746;DHT22;21870;42.812;74.628;2024-01-07T04:50:04;12.70;99.90
35746;DHT22;21870;42.812;74.628;2024-01-07T04:52:30;12.80;99.90
35746;DHT22;21870;42.812;74.628;2024-01-07T04:54:56;12.90;99.90
35746;DHT22;21870;42.812;74.628;2024-01-07T04:57:22;13.00;99.90
35746;DHT22;21870;42.812;74.628;2024-01-07T04:59:49;13.10;99.90
35746;DHT22;21870;42.812;74.628;2024-01-07T05:02:16;13.40;99.90
35746;DHT22;21870;42.812;74.628;2024-01-07T05:04:42;13.70;99.90
35746;DHT22;21870;42.812;74.628;2024-01-07T05:07:08;14.00;99.90
35746;DHT22;21870;42.812;74.628;2024-01-07T05:09:34;14.30;99.90
35746;DHT22;21870;42.812;74.628;2024-01-07T05:12:00;14.60;99.90
35746;DHT22;21870;42.812;74.628;2024-01-07T05:14:27;14.90;99.90
35746;DHT22;21870;42.812;74.628;2024-01-07T05:16:56;15.10;99.90
35746;DHT22;21870;42.812;74.628;2024-01-07T05:19:22;15.30;99.90
35746;DHT22;21870;42.812;74.628;2024-01-07T05:21:48;15.60;99.90
35746;DHT22;21870;42.812;74.628;2024-01-07T05:24:14;15.70;99.90
35746;DHT22;21870;42.812;74.628;2024-01-07T05:26:44;15.80;99.90
35746;DHT22;21870;42.812;74.628;2024-01-07T05:29:11;15.80;99.90
35746;DHT22;21870;42.812;74.628;2024-01-07T05:31:40;15.60;99.90
35746;DHT22;21870;42.812;74.628;2024-01-07T05:34:06;15.50;99.90
35746;DHT22;21870;42.812;74.628;2024-01-07T05:36:32;15.40;99.90
35746;DHT22;21870;42.812;74.628;2024-01-07T05:38:58;15.30;99.90
35746;DHT22;21870;42.812;74.628;2024-01-07T05:41:24;15.30;99.90
35746;DHT22;21870;42.812;74.628;2024-01-07T05:43:50;15.30;99.90
35746;DHT22;21870;42.812;74.628;2024-01-07T05:46:17;15.40;99.90
35746;DHT22;21870;42.812;74.628;2024-01-07T05:48:44;15.40;99.90
35746;DHT22;21870;42.812;74.628;2024-01-07T05:51:10;15.40;99.90
35746;DHT22;21870;42.812;74.628;2024-01-07T05:53:37;15.50;99.90
35746;DHT22;21870;42.812;74.628;2024-01-07T05:56:03;15.40;99.90
35746;DHT22;21870;42.812;74.628;2024-01-07T05:58:30;15.30;99.90
35746;DHT22;21870;42.812;74.628;2024-01-07T06:00:56;15.30;99.90
35746;DHT22;21870;42.812;74.628;2024-01-07T06:03:21;15.30;99.90
35746;DHT22;21870;42.812;74.628;2024-01-07T06:05:48;15.40;99.90
35746;DHT22;21870;42.812;74.628;2024-01-07T06:08:14;15.60;99.90
35746;DHT22;21870;42.812;74.628;2024-01-07T06:10:40;15.40;99.90
35746;DHT22;21870;42.812;74.628;2024-01-07T06:13:06;15.40;99.90
35746;DHT22;21870;42.812;74.628;2024-01-07T06:15:33;15.40;99.90
35746;DHT22;21870;42.812;74.628;2024-01-07T06:17:59;15.40;99.90
35746;DHT22;21870;42.812;74.628;2024-01-07T06:20:25;15.40;99.90
35746;DHT22;21870;42.812;74.628;2024-01-07T06:22:51;15.50;99.90
35746;DHT22;21870;42.812;74.628;2024-01-07T06:25:17;15.70;99.90
35746;DHT22;21870;42.812;74.628;2024-01-07T06:27:43;15.80;99.90
35746;DHT22;21870;42.812;74.628;2024-01-07T06:30:09;15.80;99.90
35746;DHT22;21870;42.812;74.628;2024-01-07T06:32:35;15.80;99.90
35746;DHT22;21870;42.812;74.628;2024-01-07T06:35:01;16.00;99.90
35746;DHT22;21870;42.812;74.628;2024-01-07T06:37:29;15.90;99.90
35746;DHT22;21870;42.812;74.628;2024-01-07T06:39:58;16.00;99.90
35746;DHT22;21870;42.812;74.628;2024-01-07T06:42:24;15.90;99.90
35746;DHT22;21870;42.812;74.628;2024-01-07T06:44:50;16.10;99.90
35746;DHT22;21870;42.812;74.628;2024-01-07T06:47:17;16.10;99.90
35746;DHT22;21870;42.812;74.628;2024-01-07T06:49:43;16.20;99.90
35746;DHT22;21870;42.812;74.628;2024-01-07T06:52:09;16.40;99.90
35746;DHT22;21870;42.812;74.628;2024-01-07T06:54:35;16.30;99.90
35746;DHT22;21870;42.812;74.628;2024-01-07T06:57:01;16.40;99.90
35746;DHT22;21870;42.812;74.628;2024-01-07T06:59:28;16.40;99.90
35746;DHT22;21870;42.812;74.628;2024-01-07T07:01:54;16.20;99.90
35746;DHT22;21870;42.812;74.628;2024-01-07T07:04:22;16.20;99.90
35746;DHT22;21870;42.812;74.628;2024-01-07T07:06:52;16.10;99.90
35746;DHT22;21870;42.812;74.628;2024-01-07T07:09:19;16.10;99.90
35746;DHT22;21870;42.812;74.628;2024-01-07T07:11:45;16.20;99.90
35746;DHT22;21870;42.812;74.628;2024-01-07T07:14:11;16.20;99.90
35746;DHT22;21870;42.812;74.628;2024-01-07T07:16:37;16.30;99.90
35746;DHT22;21870;42.812;74.628;2024-01-07T07:19:02;16.50;99.90
35746;DHT22;21870;42.812;74.628;2024-01-07T07:21:28;16.60;99.90
35746;DHT22;21870;42.812;74.628;2024-01-07T07:23:54;16.60;99.90
35746;DHT22;21870;42.812;74.628;2024-01-07T07:26:20;16.60;99.90
35746;DHT22;21870;42.812;74.628;2024-01-07T07:28:47;16.60;99.90
35746;DHT22;21870;42.812;74.628;2024-01-07T07:31:13;16.50;99.90
35746;DHT22;21870;42.812;74.628;2024-01-07T07:33:39;16.50;99.90
35746;DHT22;21870;42.812;74.628;2024-01-07T07:36:06;16.50;99.90
35746;DHT22;21870;42.812;74.628;2024-01-07T07:38:32;16.40;99.90
35746;DHT22;21870;42.812;74.628;2024-01-07T07:40:59;16.50;99.90
35746;DHT22;21870;42.812;74.628;2024-01-07T07:43:26;16.50;99.90
35746;DHT22;21870;42.812;74.628;2024-01-07T07:45:52;16.30;99.90
35746;DHT22;21870;42.812;74.628;2024-01-07T07:48:21;16.30;99.90
35746;DHT22;21870;42.812;74.628;2024-01-07T07:50:47;16.40;99.90
35746;DHT22;21870;42.812;74.628;2024-01-07T07:53:15;16.50;99.90
35746;DHT22;21870;42.812;74.628;2024-01-07T07:55:41;16.60;99.90
35746;DHT22;21870;42.812;74.628;2024-01-07T07:58:07;16.80;99.90
35746;DHT22;21870;42.812;74.628;2024-01-07T08:00:33;16.60;97.50
35746;DHT22;21870;42.812;74.628;2024-01-07T08:02:59;16.40;95.30
35746;DHT22;21870;42.812;74.628;2024-01-07T08:05:25;16.60;94.30
35746;DHT22;21870;42.812;74.628;2024-01-07T08:07:51;16.60;93.40
35746;DHT22;21870;42.812;74.628;2024-01-07T08:10:17;16.70;93.60
35746;DHT22;21870;42.812;74.628;2024-01-07T08:12:43;16.80;93.10
35746;DHT22;21870;42.812;74.628;2024-01-07T08:15:12;16.60;93.50
35746;DHT22;21870;42.812;74.628;2024-01-07T08:17:38;16.80;95.00
35746;DHT22;21870;42.812;74.628;2024-01-07T08:20:05;16.80;94.70
35746;DHT22;21870;42.812;74.628;2024-01-07T08:22:31;16.70;95.70
35746;DHT22;21870;42.812;74.628;2024-01-07T08:24:57;16.80;96.70
35746;DHT22;21870;42.812;74.628;2024-01-07T08:27:23;16.70;98.30
35746;DHT22;21870;42.812;74.628;2024-01-07T08:29:49;16.70;96.70
35746;DHT22;21870;42.812;74.628;2024-01-07T08:32:15;16.70;97.60
35746;DHT22;21870;42.812;74.628;2024-01-07T08:34:41;16.70;98.30
35746;DHT22;21870;42.812;74.628;2024-01-07T08:37:08;16.70;99.40
35746;DHT22;21870;42.812;74.628;2024-01-07T08:39:35;16.60;99.30
35746;DHT22;21870;42.812;74.628;2024-01-07T08:42:01;16.70;98.40
35746;DHT22;21870;42.812;74.628;2024-01-07T08:44:27;16.70;98.30
35746;DHT22;21870;42.812;74.628;2024-01-07T08:46:53;16.60;98.50
35746;DHT22;21870;42.812;74.628;2024-01-07T08:49:19;16.50;98.00
35746;DHT22;21870;42.812;74.628;2024-01-07T08:51:45;16.40;99.60
35746;DHT22;21870;42.812;74.628;2024-01-07T08:54:11;16.30;99.60
35746;DHT22;21870;42.812;74.628;2024-01-07T08:56:37;16.20;99.20
35746;DHT22;21870;42.812;74.628;2024-01-07T08:59:05;16.20;99.90
35746;DHT22;21870;42.812;74.628;2024-01-07T09:01:31;16.20;98.50
35746;DHT22;21870;42.812;74.628;2024-01-07T09:03:57;16.10;98.50
35746;DHT22;21870;42.812;74.628;2024-01-07T09:06:23;16.10;98.50
35746;DHT22;21870;42.812;74.628;2024-01-07T09:08:49;16.00;98.90
35746;DHT22;21870;42.812;74.628;2024-01-07T09:11:18;16.00;99.90
35746;DHT22;21870;42.812;74.628;2024-01-07T09:13:44;15.90;99.90
35746;DHT22;21870;42.812;74.628;2024-01-07T09:16:10;15.90;99.90
35746;DHT22;21870;42.812;74.628;2024-01-07T09:18:37;15.90;99.90
35746;DHT22;21870;42.812;74.628;2024-01-07T09:21:03;15.80;99.90
35746;DHT22;21870;42.812;74.628;2024-01-07T09:23:29;15.80;99.90
35746;DHT22;21870;42.812;74.628;2024-01-07T09:25:55;15.70;99.90
35746;DHT22;21870;42.812;74.628;2024-01-07T09:28:21;15.50;99.90
35746;DHT22;21870;42.812;74.628;2024-01-07T09:30:47;15.50;99.90
35746;DHT22;21870;42.812;74.628;2024-01-07T09:33:13;15.40;99.90
35746;DHT22;21870;42.812;74.628;2024-01-07T09:35:41;15.40;99.90
35746;DHT22;21870;42.812;74.628;2024-01-07T09:38:07;15.50;99.90
35746;DHT22;21870;42.812;74.628;2024-01-07T09:40:33;15.40;99.90
35746;DHT22;21870;42.812;74.628;2024-01-07T09:42:59;15.40;99.90
35746;DHT22;21870;42.812;74.628;2024-01-07T09:45:25;15.30;99.90
35746;DHT22;21870;42.812;74.628;2024-01-07T09:47:52;15.20;99.90
35746;DHT22;21870;42.812;74.628;2024-01-07T09:50:18;15.00;99.90
35746;DHT22;21870;42.812;74.628;2024-01-07T09:52:44;14.80;99.90
35746;DHT22;21870;42.812;74.628;2024-01-07T09:55:15;14.80;99.90
35746;DHT22;21870;42.812;74.628;2024-01-07T09:57:44;14.70;99.90
35746;DHT22;21870;42.812;74.628;2024-01-07T10:00:11;14.70;99.90
35746;DHT22;21870;42.812;74.628;2024-01-07T10:02:39;14.60;99.90
35746;DHT22;21870;42.812;74.628;2024-01-07T10:05:07;14.60;99.90
35746;DHT22;21870;42.812;74.628;2024-01-07T10:07:36;14.50;99.90
35746;DHT22;21870;42.812;74.628;2024-01-07T10:10:18;14.40;99.90
35746;DHT22;21870;42.812;74.628;2024-01-07T10:12:44;14.40;99.90
35746;DHT22;21870;42.812;74.628;2024-01-07T10:15:12;14.40;99.90
35746;DHT22;21870;42.812;74.628;2024-01-07T10:17:43;14.30;99.90
35746;DHT22;21870;42.812;74.628;2024-01-07T10:20:11;14.30;99.90
35746;DHT22;21870;42.812;74.628;2024-01-07T10:22:38;14.30;99.90
35746;DHT22;21870;42.812;74.628;2024-01-07T10:25:05;14.30;99.90
35746;DHT22;21870;42.812;74.628;2024-01-07T10:27:38;14.20;99.90
35746;DHT22;21870;42.812;74.628;2024-01-07T10:30:04;14.10;99.90
35746;DHT22;21870;42.812;74.628;2024-01-07T10:32:30;14.10;99.90
35746;DHT22;21870;42.812;74.628;2024-01-07T10:35:05;14.10;99.90
35746;DHT22;21870;42.812;74.628;2024-01-07T10:37:31;14.00;99.90
35746;DHT22;21870;42.812;74.628;2024-01-07T10:39:58;13.80;99.90
35746;DHT22;21870;42.812;74.628;2024-01-07T10:42:32;13.80;99.90
35746;DHT22;21870;42.812;74.628;2024-01-07T10:44:59;13.80;99.90
35746;DHT22;21870;42.812;74.628;2024-01-07T10:47:30;13.70;99.90
35746;DHT22;21870;42.812;74.628;2024-01-07T10:49:58;13.60;99.90
35746;DHT22;21870;42.812;74.628;2024-01-07T10:52:27;13.60;99.90
35746;DHT22;21870;42.812;74.628;2024-01-07T10:54:57;13.50;99.90
35746;DHT22;21870;42.812;74.628;2024-01-07T10:57:42;13.40;99.90
35746;DHT22;21870;42.812;74.628;2024-01-07T11:00:09;13.30;99.90
35746;DHT22;21870;42.812;74.628;2024-01-07T11:02:44;13.30;99.90
35746;DHT22;21870;42.812;74.628;2024-01-07T11:05:23;13.30;99.90
35746;DHT22;21870;42.812;74.628;2024-01-07T11:08:07;13.10;99.90
35746;DHT22;21870;42.812;74.628;2024-01-07T11:10:45;13.00;99.90
35746;DHT22;21870;42.812;74.628;2024-01-07T11:13:36;12.90;99.90
35746;DHT22;21870;42.812;74.628;2024-01-07T11:16:04;12.80;99.90
35746;DHT22;21870;42.812;74.628;2024-01-07T11:18:31;12.70;99.90
35746;DHT22;21870;42.812;74.628;2024-01-07T11:21:00;12.60;99.90
35746;DHT22;21870;42.812;74.628;2024-01-07T11:23:43;12.50;99.90
35746;DHT22;21870;42.812;74.628;2024-01-07T11:26:09;12.40;99.90
35746;DHT22;21870;42.812;74.628;2024-01-07T11:28:54;12.40;99.90
35746;DHT22;21870;42.812;74.628;2024-01-07T11:34:10;12.30;99.90
35746;DHT22;21870;42.812;74.628;2024-01-07T11:36:56;12.30;99.90
35746;DHT22;21870;42.812;74.628;2024-01-07T11:39:22;12.20;99.90
35746;DHT22;21870;42.812;74.628;2024-01-07T11:41:48;12.10;99.90
35746;DHT22;21870;42.812;74.628;2024-01-07T11:44:15;12.00;99.90
35746;DHT22;21870;42.812;74.628;2024-01-07T11:46:42;12.00;99.90
35746;DHT22;21870;42.812;74.628;2024-01-07T11:49:09;12.00;99.90
35746;DHT22;21870;42.812;74.628;2024-01-07T11:51:35;12.00;99.90
35746;DHT22;21870;42.812;74.628;2024-01-07T11:54:03;11.90;99.90
35746;DHT22;21870;42.812;74.628;2024-01-07T11:56:29;11.90;99.90
35746;DHT22;21870;42.812;74.628;2024-01-07T11:58:55;11.90;99.90
35746;DHT22;21870;42.812;74.628;2024-01-07T12:01:22;11.80;99.90
35746;DHT22;21870;42.812;74.628;2024-01-07T12:03:48;11.70;99.90
35746;DHT22;21870;42.812;74.628;2024-01-07T12:06:15;11.60;99.90
35746;DHT22;21870;42.812;74.628;2024-01-07T12:08:42;11.50;99.90
35746;DHT22;21870;42.812;74.628;2024-01-07T12:11:12;11.60;99.90
35746;DHT22;21870;42.812;74.628;2024-01-07T12:13:39;11.40;99.90
35746;DHT22;21870;42.812;74.628;2024-01-07T12:16:06;11.30;99.90
35746;DHT22;21870;42.812;74.628;2024-01-07T12:18:32;11.30;99.90
35746;DHT22;21870;42.812;74.628;2024-01-07T12:20:59;11.20;99.90
35746;DHT22;21870;42.812;74.628;2024-01-07T12:23:26;11.20;99.90
35746;DHT22;21870;42.812;74.628;2024-01-07T12:25:53;11.20;99.90
35746;DHT22;21870;42.812;74.628;2024-01-07T12:28:19;11.10;99.90
35746;DHT22;21870;42.812;74.628;2024-01-07T12:30:47;11.00;99.90
35746;DHT22;21870;42.812;74.628;2024-01-07T12:33:17;10.90;99.90
35746;DHT22;21870;42.812;74.628;2024-01-07T12:35:45;10.90;99.90
35746;DHT22;21870;42.812;74.628;2024-01-07T12:38:12;10.80;99.90
35746;DHT22;21870;42.812;74.628;2024-01-07T12:40:38;10.80;99.90
35746;DHT22;21870;42.812;74.628;2024-01-07T12:43:05;10.80;99.90
35746;DHT22;21870;42.812;74.628;2024-01-07T12:45:34;10.70;99.90
35746;DHT22;21870;42.812;74.628;2024-01-07T12:48:00;10.80;99.90
35746;DHT22;21870;42.812;74.628;2024-01-07T12:50:28;10.90;99.90
35746;DHT22;21870;42.812;74.628;2024-01-07T12:52:57;10.90;99.90
35746;DHT22;21870;42.812;74.628;2024-01-07T12:55:23;11.00;99.90
35746;DHT22;21870;42.812;74.628;2024-01-07T12:57:51;11.00;99.90
35746;DHT22;21870;42.812;74.628;2024-01-07T13:00:17;11.00;99.90
35746;DHT22;21870;42.812;74.628;2024-01-07T13:02:43;10.90;99.90
35746;DHT22;21870;42.812;74.628;2024-01-07T13:05:09;11.00;99.90
35746;DHT22;21870;42.812;74.628;2024-01-07T13:07:35;10.90;99.90
35746;DHT22;21870;42.812;74.628;2024-01-07T13:10:01;10.80;99.90
35746;DHT22;21870;42.812;74.628;2024-01-07T13:12:27;10.80;99.90
35746;DHT22;21870;42.812;74.628;2024-01-07T13:14:54;10.70;99.90
35746;DHT22;21870;42.812;74.628;2024-01-07T13:17:20;10.60;99.90
35746;DHT22;21870;42.812;74.628;2024-01-07T13:19:45;10.60;99.90
35746;DHT22;21870;42.812;74.628;2024-01-07T13:22:12;10.50;99.90
35746;DHT22;21870;42.812;74.628;2024-01-07T13:24:39;10.50;99.90
35746;DHT22;21870;42.812;74.628;2024-01-07T13:27:05;10.50;99.90
35746;DHT22;21870;42.812;74.628;2024-01-07T13:29:32;10.50;99.90
35746;DHT22;21870;42.812;74.628;2024-01-07T13:31:58;10.50;99.90
35746;DHT22;21870;42.812;74.628;2024-01-07T13:34:23;10.60;99.90
35746;DHT22;21870;42.812;74.628;2024-01-07T13:36:50;10.60;99.90
35746;DHT22;21870;42.812;74.628;2024-01-07T13:39:17;10.50;99.90
35746;DHT22;21870;42.812;74.628;2024-01-07T13:41:43;10.50;99.90
35746;DHT22;21870;42.812;74.628;2024-01-07T13:44:10;10.50;99.90
35746;DHT22;21870;42.812;74.628;2024-01-07T13:46:46;10.40;99.90
35746;DHT22;21870;42.812;74.628;2024-01-07T13:49:14;10.30;99.90
35746;DHT22;21870;42.812;74.628;2024-01-07T13:51:44;10.30;99.90
35746;DHT22;21870;42.812;74.628;2024-01-07T13:54:10;10.30;99.90
35746;DHT22;21870;42.812;74.628;2024-01-07T13:56:39;10.30;99.90
35746;DHT22;21870;42.812;74.628;2024-01-07T13:59:10;10.30;99.90
35746;DHT22;21870;42.812;74.628;2024-01-07T14:01:37;10.40;99.90
35746;DHT22;21870;42.812;74.628;2024-01-07T14:04:03;10.50;99.90
35746;DHT22;21870;42.812;74.628;2024-01-07T14:06:30;10.50;99.90
35746;DHT22;21870;42.812;74.628;2024-01-07T14:08:56;10.50;99.90
35746;DHT22;21870;42.812;74.628;2024-01-07T14:11:22;10.60;99.90
35746;DHT22;21870;42.812;74.628;2024-01-07T14:13:48;10.60;99.90
35746;DHT22;21870;42.812;74.628;2024-01-07T14:16:14;10.60;99.90
35746;DHT22;21870;42.812;74.628;2024-01-07T14:18:40;10.70;99.90
35746;DHT22;21870;42.812;74.628;2024-01-07T14:21:06;10.70;99.90
35746;DHT22;21870;42.812;74.628;2024-01-07T14:23:33;10.80;99.90
35746;DHT22;21870;42.812;74.628;2024-01-07T14:26:00;10.80;99.90
35746;DHT22;21870;42.812;74.628;2024-01-07T14:28:26;10.70;99.90
35746;DHT22;21870;42.812;74.628;2024-01-07T14:30:52;10.80;99.90
35746;DHT22;21870;42.812;74.628;2024-01-07T14:33:18;10.90;99.90
35746;DHT22;21870;42.812;74.628;2024-01-07T14:35:44;10.90;99.90
35746;DHT22;21870;42.812;74.628;2024-01-07T14:38:10;11.00;99.90
35746;DHT22;21870;42.812;74.628;2024-01-07T14:40:36;11.10;99.90
35746;DHT22;21870;42.812;74.628;2024-01-07T14:43:02;11.00;99.90
35746;DHT22;21870;42.812;74.628;2024-01-07T14:45:29;10.90;99.90
35746;DHT22;21870;42.812;74.628;2024-01-07T14:47:55;11.00;99.90
35746;DHT22;21870;42.812;74.628;2024-01-07T14:50:21;11.00;99.90
35746;DHT22;21870;42.812;74.628;2024-01-07T14:52:47;10.90;99.90
35746;DHT22;21870;42.812;74.628;2024-01-07T14:55:14;10.90;99.90
35746;DHT22;21870;42.812;74.628;2024-01-07T14:57:40;10.90;99.90
35746;DHT22;21870;42.812;74.628;2024-01-07T15:00:07;10.90;99.90
35746;DHT22;21870;42.812;74.628;2024-01-07T15:02:34;11.00;99.90
35746;DHT22;21870;42.812;74.628;2024-01-07T15:05:00;11.00;99.90
35746;DHT22;21870;42.812;74.628;2024-01-07T15:07:27;11.00;99.90
35746;DHT22;21870;42.812;74.628;2024-01-07T15:09:52;11.00;99.90
35746;DHT22;21870;42.812;74.628;2024-01-07T15:12:18;11.00;99.90
35746;DHT22;21870;42.812;74.628;2024-01-07T15:14:45;11.00;99.90
35746;DHT22;21870;42.812;74.628;2024-01-07T15:17:11;11.00;99.90
35746;DHT22;21870;42.812;74.628;2024-01-07T15:19:37;10.80;99.90
35746;DHT22;21870;42.812;74.628;2024-01-07T15:22:03;10.80;99.90